sensor_id;sensor_type;location;lat;lon;timestamp;temperature;humidity
41939;DHT22;23057;48.554;14.454;2023-04-21T00:01:30;7.10;99.90
41939;DHT22;23057;48.554;14.454;2023-04-21T00:04:02;7.00;99.90
41939;DHT22;23057;48.554;14.454;2023-04-21T00:06:32;7.00;99.90
41939;DHT22;23057;48.554;14.454;2023-04-21T00:09:03;7.20;99.90
41939;DHT22;23057;48.554;14.454;2023-04-21T00:11:34;7.70;99.90
41939;DHT22;23057;48.554;14.454;2023-04-21T00:14:05;7.70;99.90
41939;DHT22;23057;48.554;14.454;2023-04-21T00:16:36;7.70;99.90
41939;DHT22;23057;48.554;14.454;2023-04-21T00:19:06;7.90;70.40
41939;DHT22;23057;48.554;14.454;2023-04-21T00:21:37;7.90;1.00
41939;DHT22;23057;48.554;14.454;2023-04-21T00:24:08;8.00;1.00
41939;DHT22;23057;48.554;14.454;2023-04-21T00:26:39;7.90;1.00
41939;DHT22;23057;48.554;14.454;2023-04-21T00:29:09;7.90;99.90
41939;DHT22;23057;48.554;14.454;2023-04-21T00:31:40;7.80;99.90
41939;DHT22;23057;48.554;14.454;2023-04-21T00:34:11;7.80;99.90
41939;DHT22;23057;48.554;14.454;2023-04-21T00:36:42;7.80;99.90
41939;DHT22;23057;48.554;14.454;2023-04-21T00:39:12;7.60;99.90
41939;DHT22;23057;48.554;14.454;2023-04-21T00:41:43;7.30;99.90
41939;DHT22;23057;48.554;14.454;2023-04-21T00:44:14;6.90;99.90
41939;DHT22;23057;48.554;14.454;2023-04-21T00:46:45;6.60;1.00
41939;DHT22;23057;48.554;14.454;2023-04-21T00:49:16;6.50;53.10
41939;DHT22;23057;48.554;14.454;2023-04-21T00:51:47;6.30;99.90
41939;DHT22;23057;48.554;14.454;2023-04-21T00:54:18;6.30;99.90
41939;DHT22;23057;48.554;14.454;2023-04-21T00:56:49;6.40;99.90
41939;DHT22;23057;48.554;14.454;2023-04-21T00:59:20;6.40;99.90
41939;DHT22;23057;48.554;14.454;2023-04-21T01:01:50;6.50;99.90
41939;DHT22;23057;48.554;14.454;2023-04-21T01:04:22;6.50;99.90
41939;DHT22;23057;48.554;14.454;2023-04-21T01:06:52;6.60;99.90
41939;DHT22;23057;48.554;14.454;2023-04-21T01:09:23;6.50;99.90
41939;DHT22;23057;48.554;14.454;2023-04-21T01:11:59;6.20;99.90
41939;DHT22;23057;48.554;14.454;2023-04-21T01:14:40;6.00;99.90
41939;DHT22;23057;48.554;14.454;2023-04-21T01:17:11;5.90;99.90
41939;DHT22;23057;48.554;14.454;2023-04-21T01:19:42;5.80;99.90
41939;DHT22;23057;48.554;14.454;2023-04-21T01:22:14;5.80;99.90
41939;DHT22;23057;48.554;14.454;2023-04-21T01:24:46;5.70;99.90
41939;DHT22;23057;48.554;14.454;2023-04-21T01:27:18;5.40;99.90
41939;DHT22;23057;48.554;14.454;2023-04-21T01:29:50;5.40;99.90
41939;DHT22;23057;48.554;14.454;2023-04-21T01:32:23;5.30;99.90
41939;DHT22;23057;48.554;14.454;2023-04-21T01:34:58;5.30;99.90
41939;DHT22;23057;48.554;14.454;2023-04-21T01:37:30;5.20;99.90
41939;DHT22;23057;48.554;14.454;2023-04-21T01:40:04;5.10;99.90
41939;DHT22;23057;48.554;14.454;2023-04-21T01:42:40;5.10;99.90
41939;DHT22;23057;48.554;14.454;2023-04-21T01:45:12;5.00;99.90
41939;DHT22;23057;48.554;14.454;2023-04-21T01:47:43;5.00;99.90
41939;DHT22;23057;48.554;14.454;2023-04-21T01:50:14;5.00;99.90
41939;DHT22;23057;48.554;14.454;2023-04-21T01:52:45;4.90;99.90
41939;DHT22;23057;48.554;14.454;2023-04-21T01:55:16;4.90;99.90
41939;DHT22;23057;48.554;14.454;2023-04-21T01:57:47;4.80;99.90
41939;DHT22;23057;48.554;14.454;2023-04-21T02:00:17;4.70;99.90
41939;DHT22;23057;48.554;14.454;2023-04-21T02:02:48;4.80;99.90
41939;DHT22;23057;48.554;14.454;2023-04-21T02:05:19;4.70;99.90
41939;DHT22;23057;48.554;14.454;2023-04-21T02:07:50;4.70;99.90
41939;DHT22;23057;48.554;14.454;2023-04-21T02:10:21;4.80;99.90
41939;DHT22;23057;48.554;14.454;2023-04-21T02:12:51;4.70;99.90
41939;DHT22;23057;48.554;14.454;2023-04-21T02:15:22;4.70;99.90
41939;DHT22;23057;48.554;14.454;2023-04-21T02:17:53;4.80;99.90
41939;DHT22;23057;48.554;14.454;2023-04-21T02:20:24;4.60;99.90
41939;DHT22;23057;48.554;14.454;2023-04-21T02:22:55;4.50;99.90
41939;DHT22;23057;48.554;14.454;2023-04-21T02:25:26;4.40;99.90
41939;DHT22;23057;48.554;14.454;2023-04-21T02:27:57;4.20;99.90
41939;DHT22;23057;48.554;14.454;2023-04-21T02:30:28;4.20;99.90
41939;DHT22;23057;48.554;14.454;2023-04-21T02:32:58;4.20;99.90
41939;DHT22;23057;48.554;14.454;2023-04-21T02:35:29;4.20;99.90
41939;DHT22;23057;48.554;14.454;2023-04-21T02:38:02;4.10;99.90
41939;DHT22;23057;48.554;14.454;2023-04-21T02:40:36;4.20;99.90
41939;DHT22;23057;48.554;14.454;2023-04-21T02:43:07;4.00;99.90
41939;DHT22;23057;48.554;14.454;2023-04-21T02:45:38;4.10;99.90
41939;DHT22;23057;48.554;14.454;2023-04-21T02:48:08;4.00;99.90
41939;DHT22;23057;48.554;14.454;2023-04-21T02:50:41;4.00;99.90
41939;DHT22;23057;48.554;14.454;2023-04-21T02:53:12;3.90;99.90
41939;DHT22;23057;48.554;14.454;2023-04-21T02:55:43;3.80;99.90
41939;DHT22;23057;48.554;14.454;2023-04-21T02:58:13;3.80;99.90
41939;DHT22;23057;48.554;14.454;2023-04-21T03:00:45;3.90;99.90
41939;DHT22;23057;48.554;14.454;2023-04-21T03:03:16;4.00;99.90
41939;DHT22;23057;48.554;14.454;2023-04-21T03:05:47;4.00;99.90
41939;DHT22;23057;48.554;14.454;2023-04-21T03:08:17;4.10;99.90
41939;DHT22;23057;48.554;14.454;2023-04-21T03:10:48;3.90;99.90
41939;DHT22;23057;48.554;14.454;2023-04-21T03:13:19;3.90;99.90
41939;DHT22;23057;48.554;14.454;2023-04-21T03:15:50;3.80;99.90
41939;DHT22;23057;48.554;14.454;2023-04-21T03:18:21;3.70;99.90
41939;DHT22;23057;48.554;14.454;2023-04-21T03:20:57;3.60;99.90
41939;DHT22;23057;48.554;14.454;2023-04-21T03:23:30;3.60;99.90
41939;DHT22;23057;48.554;14.454;2023-04-21T03:26:05;3.70;99.90
41939;DHT22;23057;48.554;14.454;2023-04-21T03:28:37;3.70;99.90
41939;DHT22;23057;48.554;14.454;2023-04-21T03:31:07;3.80;99.90
41939;DHT22;23057;48.554;14.454;2023-04-21T03:33:38;3.80;99.90
41939;DHT22;23057;48.554;14.454;2023-04-21T03:36:09;3.80;99.90
41939;DHT22;23057;48.554;14.454;2023-04-21T03:38:40;3.70;99.90
41939;DHT22;23057;48.554;14.454;2023-04-21T03:41:10;3.60;99.90
41939;DHT22;23057;48.554;14.454;2023-04-21T03:43:41;3.60;99.90
41939;DHT22;23057;48.554;14.454;2023-04-21T03:46:18;3.60;99.90
41939;DHT22;23057;48.554;14.454;2023-04-21T03:48:50;3.60;99.90
41939;DHT22;23057;48.554;14.454;2023-04-21T03:51:21;3.40;99.90
41939;DHT22;23057;48.554;14.454;2023-04-21T03:53:52;3.40;99.90
41939;DHT22;23057;48.554;14.454;2023-04-21T03:56:23;3.30;99.90
41939;DHT22;23057;48.554;14.454;2023-04-21T03:58:53;3.30;99.90
41939;DHT22;23057;48.554;14.454;2023-04-21T04:01:24;3.40;99.90
41939;DHT22;23057;48.554;14.454;2023-04-21T04:03:55;3.40;99.90
41939;DHT22;23057;48.554;14.454;2023-04-21T04:06:26;3.30;99.90
41939;DHT22;23057;48.554;14.454;2023-04-21T04:08:57;3.20;99.90
41939;DHT22;23057;48.554;14.454;2023-04-21T04:11:28;3.20;99.90
41939;DHT22;23057;48.554;14.454;2023-04-21T04:14:00;3.20;99.90
41939;DHT22;23057;48.554;14.454;2023-04-21T04:16:32;3.10;99.90
41939;DHT22;23057;48.554;14.454;2023-04-21T04:19:04;3.50;99.90
41939;DHT22;23057;48.554;14.454;2023-04-21T04:21:34;3.80;99.90
41939;DHT22;23057;48.554;14.454;2023-04-21T04:24:05;4.50;99.90
41939;DHT22;23057;48.554;14.454;2023-04-21T04:26:37;5.70;99.90
41939;DHT22;23057;48.554;14.454;2023-04-21T04:29:09;6.60;99.90
41939;DHT22;23057;48.554;14.454;2023-04-21T04:31:40;6.80;99.90
41939;DHT22;23057;48.554;14.454;2023-04-21T04:34:11;7.30;99.90
41939;DHT22;23057;48.554;14.454;2023-04-21T04:36:41;7.60;99.90
41939;DHT22;23057;48.554;14.454;2023-04-21T04:39:12;8.20;99.90
41939;DHT22;23057;48.554;14.454;2023-04-21T04:41:43;8.40;99.90
41939;DHT22;23057;48.554;14.454;2023-04-21T04:44:14;8.80;99.90
41939;DHT22;23057;48.554;14.454;2023-04-21T04:46:47;8.60;99.90
41939;DHT22;23057;48.554;14.454;2023-04-21T04:49:18;8.40;99.90
41939;DHT22;23057;48.554;14.454;2023-04-21T04:51:49;9.60;99.90
41939;DHT22;23057;48.554;14.454;2023-04-21T04:54:20;9.20;75.90
41939;DHT22;23057;48.554;14.454;2023-04-21T04:56:51;10.00;99.90
41939;DHT22;23057;48.554;14.454;2023-04-21T04:59:21;8.30;99.90
41939;DHT22;23057;48.554;14.454;2023-04-21T05:01:52;8.90;99.90
41939;DHT22;23057;48.554;14.454;2023-04-21T05:04:23;10.10;1.00
41939;DHT22;23057;48.554;14.454;2023-04-21T05:06:53;10.50;99.90
41939;DHT22;23057;48.554;14.454;2023-04-21T05:09:24;10.10;99.90
41939;DHT22;23057;48.554;14.454;2023-04-21T05:11:55;10.60;99.90
41939;DHT22;23057;48.554;14.454;2023-04-21T05:14:26;10.70;77.00
41939;DHT22;23057;48.554;14.454;2023-04-21T05:16:57;10.60;97.40
41939;DHT22;23057;48.554;14.454;2023-04-21T05:19:27;9.90;67.60
41939;DHT22;23057;48.554;14.454;2023-04-21T05:21:58;9.20;99.90
41939;DHT22;23057;48.554;14.454;2023-04-21T05:24:32;9.10;99.90
41939;DHT22;23057;48.554;14.454;2023-04-21T05:27:03;9.70;99.90
41939;DHT22;23057;48.554;14.454;2023-04-21T05:29:34;10.70;93.40
41939;DHT22;23057;48.554;14.454;2023-04-21T05:32:05;11.80;11.80
41939;DHT22;23057;48.554;14.454;2023-04-21T05:34:36;11.50;1.00
41939;DHT22;23057;48.554;14.454;2023-04-21T05:37:09;11.30;1.00
41939;DHT22;23057;48.554;14.454;2023-04-21T05:39:41;11.80;1.00
41939;DHT22;23057;48.554;14.454;2023-04-21T05:42:12;12.00;1.00
41939;DHT22;23057;48.554;14.454;2023-04-21T05:44:42;11.90;1.00
41939;DHT22;23057;48.554;14.454;2023-04-21T05:47:13;11.70;1.00
41939;DHT22;23057;48.554;14.454;2023-04-21T05:49:45;11.10;18.70
41939;DHT22;23057;48.554;14.454;2023-04-21T05:52:19;11.30;6.60
41939;DHT22;23057;48.554;14.454;2023-04-21T05:54:52;11.70;1.00
41939;DHT22;23057;48.554;14.454;2023-04-21T05:57:23;11.10;43.60
41939;DHT22;23057;48.554;14.454;2023-04-21T05:59:54;10.50;71.90
41939;DHT22;23057;48.554;14.454;2023-04-21T06:02:26;10.10;99.90
41939;DHT22;23057;48.554;14.454;2023-04-21T06:04:56;10.40;99.90
41939;DHT22;23057;48.554;14.454;2023-04-21T06:07:27;10.20;99.90
41939;DHT22;23057;48.554;14.454;2023-04-21T06:09:58;10.80;99.90
41939;DHT22;23057;48.554;14.454;2023-04-21T06:12:29;11.20;99.90
41939;DHT22;23057;48.554;14.454;2023-04-21T06:14:59;11.60;97.00
41939;DHT22;23057;48.554;14.454;2023-04-21T06:17:30;11.80;64.30
41939;DHT22;23057;48.554;14.454;2023-04-21T06:20:01;12.10;51.10
41939;DHT22;23057;48.554;14.454;2023-04-21T06:22:33;11.90;99.90
41939;DHT22;23057;48.554;14.454;2023-04-21T06:25:04;12.00;99.90
41939;DHT22;23057;48.554;14.454;2023-04-21T06:27:35;12.00;99.90
41939;DHT22;23057;48.554;14.454;2023-04-21T06:30:06;11.80;98.40
41939;DHT22;23057;48.554;14.454;2023-04-21T06:32:38;12.30;99.90
41939;DHT22;23057;48.554;14.454;2023-04-21T06:35:09;12.30;74.30
41939;DHT22;23057;48.554;14.454;2023-04-21T06:37:40;12.60;92.10
41939;DHT22;23057;48.554;14.454;2023-04-21T06:40:11;13.20;72.30
41939;DHT22;23057;48.554;14.454;2023-04-21T06:42:45;12.90;31.00
41939;DHT22;23057;48.554;14.454;2023-04-21T06:45:15;12.50;90.90
41939;DHT22;23057;48.554;14.454;2023-04-21T06:47:46;12.40;99.90
41939;DHT22;23057;48.554;14.454;2023-04-21T06:50:17;12.10;99.90
41939;DHT22;23057;48.554;14.454;2023-04-21T06:52:48;11.90;99.90
41939;DHT22;23057;48.554;14.454;2023-04-21T06:55:18;12.10;99.90
41939;DHT22;23057;48.554;14.454;2023-04-21T06:57:49;12.20;99.90
41939;DHT22;23057;48.554;14.454;2023-04-21T07:00:20;12.20;99.90
41939;DHT22;23057;48.554;14.454;2023-04-21T07:02:52;12.50;99.90
41939;DHT22;23057;48.554;14.454;2023-04-21T07:05:22;12.70;99.90
41939;DHT22;23057;48.554;14.454;2023-04-21T07:07:53;12.40;99.90
41939;DHT22;23057;48.554;14.454;2023-04-21T07:10:28;12.20;99.90
41939;DHT22;23057;48.554;14.454;2023-04-21T07:13:02;12.70;99.90
41939;DHT22;23057;48.554;14.454;2023-04-21T07:15:32;12.90;99.90
41939;DHT22;23057;48.554;14.454;2023-04-21T07:18:03;12.90;99.90
41939;DHT22;23057;48.554;14.454;2023-04-21T07:20:34;13.00;99.90
41939;DHT22;23057;48.554;14.454;2023-04-21T07:23:05;13.40;99.90
41939;DHT22;23057;48.554;14.454;2023-04-21T07:25:35;13.60;99.90
41939;DHT22;23057;48.554;14.454;2023-04-21T07:28:06;13.70;99.90
41939;DHT22;23057;48.554;14.454;2023-04-21T07:30:37;13.70;99.90
41939;DHT22;23057;48.554;14.454;2023-04-21T07:33:08;14.20;99.90
41939;DHT22;23057;48.554;14.454;2023-04-21T07:35:39;15.00;99.90
41939;DHT22;23057;48.554;14.454;2023-04-21T07:38:10;15.90;19.10
41939;DHT22;23057;48.554;14.454;2023-04-21T07:40:41;16.00;1.00
41939;DHT22;23057;48.554;14.454;2023-04-21T07:43:11;15.60;1.00
41939;DHT22;23057;48.554;14.454;2023-04-21T07:45:42;15.40;1.00
41939;DHT22;23057;48.554;14.454;2023-04-21T07:48:14;14.90;1.00
41939;DHT22;23057;48.554;14.454;2023-04-21T07:50:45;15.40;1.00
41939;DHT22;23057;48.554;14.454;2023-04-21T07:53:16;15.50;99.90
41939;DHT22;23057;48.554;14.454;2023-04-21T07:55:46;14.90;99.90
41939;DHT22;23057;48.554;14.454;2023-04-21T07:58:17;14.60;1.00
41939;DHT22;23057;48.554;14.454;2023-04-21T08:00:48;15.10;1.00
41939;DHT22;23057;48.554;14.454;2023-04-21T08:03:19;14.50;99.90
41939;DHT22;23057;48.554;14.454;2023-04-21T08:05:50;14.60;1.00
41939;DHT22;23057;48.554;14.454;2023-04-21T08:08:21;14.80;1.00
41939;DHT22;23057;48.554;14.454;2023-04-21T08:10:52;14.20;99.90
41939;DHT22;23057;48.554;14.454;2023-04-21T08:13:23;14.10;1.00
41939;DHT22;23057;48.554;14.454;2023-04-21T08:15:54;14.60;99.90
41939;DHT22;23057;48.554;14.454;2023-04-21T08:18:25;14.70;99.90
41939;DHT22;23057;48.554;14.454;2023-04-21T08:20:56;14.70;99.90
41939;DHT22;23057;48.554;14.454;2023-04-21T08:23:27;14.70;99.90
41939;DHT22;23057;48.554;14.454;2023-04-21T08:26:01;14.30;99.90
41939;DHT22;23057;48.554;14.454;2023-04-21T08:28:32;14.40;99.90
41939;DHT22;23057;48.554;14.454;2023-04-21T08:31:03;14.60;99.90
41939;DHT22;23057;48.554;14.454;2023-04-21T08:33:34;14.50;99.90
41939;DHT22;23057;48.554;14.454;2023-04-21T08:36:05;14.50;99.90
41939;DHT22;23057;48.554;14.454;2023-04-21T08:38:36;14.60;99.90
41939;DHT22;23057;48.554;14.454;2023-04-21T08:41:08;14.70;99.90
41939;DHT22;23057;48.554;14.454;2023-04-21T08:43:39;14.70;99.90
41939;DHT22;23057;48.554;14.454;2023-04-21T08:46:11;15.00;99.90
41939;DHT22;23057;48.554;14.454;2023-04-21T08:48:42;15.10;99.90
41939;DHT22;23057;48.554;14.454;2023-04-21T08:51:13;15.00;99.90
41939;DHT22;23057;48.554;14.454;2023-04-21T08:53:56;15.10;99.90
41939;DHT22;23057;48.554;14.454;2023-04-21T08:56:27;15.40;99.90
41939;DHT22;23057;48.554;14.454;2023-04-21T08:58:58;15.40;99.90
41939;DHT22;23057;48.554;14.454;2023-04-21T09:01:29;15.50;99.90
41939;DHT22;23057;48.554;14.454;2023-04-21T09:04:16;16.00;99.90
41939;DHT22;23057;48.554;14.454;2023-04-21T09:06:47;16.40;99.90
41939;DHT22;23057;48.554;14.454;2023-04-21T09:09:18;16.00;99.90
41939;DHT22;23057;48.554;14.454;2023-04-21T09:11:55;16.20;99.90
41939;DHT22;23057;48.554;14.454;2023-04-21T09:14:30;15.90;99.90
41939;DHT22;23057;48.554;14.454;2023-04-21T09:17:03;15.80;99.90
41939;DHT22;23057;48.554;14.454;2023-04-21T09:19:34;16.10;99.90
41939;DHT22;23057;48.554;14.454;2023-04-21T09:22:05;15.70;99.90
41939;DHT22;23057;48.554;14.454;2023-04-21T09:24:35;16.10;99.90
41939;DHT22;23057;48.554;14.454;2023-04-21T09:27:08;16.30;99.90
41939;DHT22;23057;48.554;14.454;2023-04-21T09:29:44;15.80;99.90
41939;DHT22;23057;48.554;14.454;2023-04-21T09:32:19;16.50;99.90
41939;DHT22;23057;48.554;14.454;2023-04-21T09:34:50;16.60;99.90
41939;DHT22;23057;48.554;14.454;2023-04-21T09:37:21;16.40;99.90
41939;DHT22;23057;48.554;14.454;2023-04-21T09:39:54;16.00;99.90
41939;DHT22;23057;48.554;14.454;2023-04-21T09:42:28;15.80;99.90
41939;DHT22;23057;48.554;14.454;2023-04-21T09:45:00;15.70;99.90
41939;DHT22;23057;48.554;14.454;2023-04-21T09:47:31;16.50;99.90
41939;DHT22;23057;48.554;14.454;2023-04-21T09:50:10;16.20;99.90
41939;DHT22;23057;48.554;14.454;2023-04-21T09:52:42;15.50;99.90
41939;DHT22;23057;48.554;14.454;2023-04-21T09:55:14;15.70;99.90
41939;DHT22;23057;48.554;14.454;2023-04-21T09:57:47;15.80;99.90
41939;DHT22;23057;48.554;14.454;2023-04-21T10:00:21;16.50;99.90
41939;DHT22;23057;48.554;14.454;2023-04-21T10:03:00;16.20;99.90
41939;DHT22;23057;48.554;14.454;2023-04-21T10:05:39;16.70;99.90
41939;DHT22;23057;48.554;14.454;2023-04-21T10:08:11;16.20;99.90
41939;DHT22;23057;48.554;14.454;2023-04-21T10:10:42;16.70;99.90
41939;DHT22;23057;48.554;14.454;2023-04-21T10:13:15;17.00;99.90
41939;DHT22;23057;48.554;14.454;2023-04-21T10:15:47;16.80;99.90
41939;DHT22;23057;48.554;14.454;2023-04-21T10:18:19;16.70;99.90
41939;DHT22;23057;48.554;14.454;2023-04-21T10:20:56;16.00;99.90
41939;DHT22;23057;48.554;14.454;2023-04-21T10:23:28;15.60;99.90
41939;DHT22;23057;48.554;14.454;2023-04-21T10:26:00;15.30;99.90
41939;DHT22;23057;48.554;14.454;2023-04-21T10:39:29;16.20;99.90
41939;DHT22;23057;48.554;14.454;2023-04-21T10:47:28;16.00;99.90
41939;DHT22;23057;48.554;14.454;2023-04-21T10:50:10;15.10;99.90
41939;DHT22;23057;48.554;14.454;2023-04-21T10:52:51;14.70;99.90
41939;DHT22;23057;48.554;14.454;2023-04-21T10:55:28;15.70;99.90
41939;DHT22;23057;48.554;14.454;2023-04-21T10:58:00;15.60;99.90
41939;DHT22;23057;48.554;14.454;2023-04-21T11:00:34;15.10;99.90
41939;DHT22;23057;48.554;14.454;2023-04-21T11:03:09;15.40;99.90
41939;DHT22;23057;48.554;14.454;2023-04-21T11:05:40;16.10;99.90
41939;DHT22;23057;48.554;14.454;2023-04-21T11:08:12;16.70;99.90
41939;DHT22;23057;48.554;14.454;2023-04-21T11:13:24;16.40;99.90
41939;DHT22;23057;48.554;14.454;2023-04-21T11:16:05;16.20;99.90
41939;DHT22;23057;48.554;14.454;2023-04-21T11:18:41;16.60;99.90
41939;DHT22;23057;48.554;14.454;2023-04-21T11:21:17;16.00;99.90
41939;DHT22;23057;48.554;14.454;2023-04-21T11:26:31;16.50;99.90
41939;DHT22;23057;48.554;14.454;2023-04-21T11:29:07;16.30;99.90
41939;DHT22;23057;48.554;14.454;2023-04-21T11:31:41;16.20;99.90
41939;DHT22;23057;48.554;14.454;2023-04-21T11:34:18;16.70;99.90
41939;DHT22;23057;48.554;14.454;2023-04-21T11:36:51;16.70;99.90
41939;DHT22;23057;48.554;14.454;2023-04-21T11:39:22;17.10;99.90
41939;DHT22;23057;48.554;14.454;2023-04-21T11:41:53;16.90;99.90
41939;DHT22;23057;48.554;14.454;2023-04-21T11:44:31;16.80;99.90
41939;DHT22;23057;48.554;14.454;2023-04-21T11:49:55;17.20;99.90
41939;DHT22;23057;48.554;14.454;2023-04-21T11:52:31;17.20;99.90
41939;DHT22;23057;48.554;14.454;2023-04-21T11:55:13;16.70;99.90
41939;DHT22;23057;48.554;14.454;2023-04-21T11:57:48;17.40;99.90
41939;DHT22;23057;48.554;14.454;2023-04-21T12:00:20;17.50;99.90
41939;DHT22;23057;48.554;14.454;2023-04-21T12:02:54;16.80;99.90
41939;DHT22;23057;48.554;14.454;2023-04-21T12:05:33;16.40;99.90
41939;DHT22;23057;48.554;14.454;2023-04-21T12:08:05;16.80;99.90
41939;DHT22;23057;48.554;14.454;2023-04-21T12:10:36;17.40;99.90
41939;DHT22;23057;48.554;14.454;2023-04-21T12:13:07;17.00;99.90
41939;DHT22;23057;48.554;14.454;2023-04-21T12:15:38;16.80;99.90
41939;DHT22;23057;48.554;14.454;2023-04-21T12:18:11;17.10;99.90
41939;DHT22;23057;48.554;14.454;2023-04-21T12:20:50;17.20;99.90
41939;DHT22;23057;48.554;14.454;2023-04-21T12:23:22;17.20;99.90
41939;DHT22;23057;48.554;14.454;2023-04-21T12:25:53;17.40;99.90
41939;DHT22;23057;48.554;14.454;2023-04-21T12:28:23;17.30;99.90
41939;DHT22;23057;48.554;14.454;2023-04-21T12:30:55;16.10;99.90
41939;DHT22;23057;48.554;14.454;2023-04-21T12:33:26;16.20;99.90
41939;DHT22;23057;48.554;14.454;2023-04-21T12:35:56;16.10;99.90
41939;DHT22;23057;48.554;14.454;2023-04-21T12:38:28;15.90;99.90
41939;DHT22;23057;48.554;14.454;2023-04-21T12:40:59;16.00;99.90
41939;DHT22;23057;48.554;14.454;2023-04-21T12:43:30;15.70;99.90
41939;DHT22;23057;48.554;14.454;2023-04-21T12:46:01;15.60;99.90
41939;DHT22;23057;48.554;14.454;2023-04-21T12:48:32;15.30;99.90
41939;DHT22;23057;48.554;14.454;2023-04-21T12:51:03;15.30;99.90
41939;DHT22;23057;48.554;14.454;2023-04-21T12:53:35;15.50;99.90
41939;DHT22;23057;48.554;14.454;2023-04-21T12:56:06;15.80;99.90
41939;DHT22;23057;48.554;14.454;2023-04-21T12:58:37;16.40;99.90
41939;DHT22;23057;48.554;14.454;2023-04-21T13:01:07;17.00;99.90
41939;DHT22;23057;48.554;14.454;2023-04-21T13:03:38;16.50;99.90
41939;DHT22;23057;48.554;14.454;2023-04-21T13:06:09;15.50;99.90
41939;DHT22;23057;48.554;14.454;2023-04-21T13:08:40;14.90;99.90
41939;DHT22;23057;48.554;14.454;2023-04-21T13:11:10;14.80;99.90
41939;DHT22;23057;48.554;14.454;2023-04-21T13:13:41;14.70;99.90
41939;DHT22;23057;48.554;14.454;2023-04-21T13:16:12;14.70;99.90
41939;DHT22;23057;48.554;14.454;2023-04-21T13:18:44;14.90;99.90
41939;DHT22;23057;48.554;14.454;2023-04-21T13:21:15;15.20;99.90
41939;DHT22;23057;48.554;14.454;2023-04-21T13:23:46;15.10;99.90
41939;DHT22;23057;48.554;14.454;2023-04-21T13:26:17;14.90;99.90
41939;DHT22;23057;48.554;14.454;2023-04-21T13:28:48;15.00;99.90
41939;DHT22;23057;48.554;14.454;2023-04-21T13:31:19;15.10;99.90
41939;DHT22;23057;48.554;14.454;2023-04-21T13:33:50;14.90;99.90
41939;DHT22;23057;48.554;14.454;2023-04-21T13:36:21;14.90;99.90
41939;DHT22;23057;48.554;14.454;2023-04-21T13:38:52;15.00;99.90
41939;DHT22;23057;48.554;14.454;2023-04-21T13:41:24;15.00;99.90
41939;DHT22;23057;48.554;14.454;2023-04-21T13:43:55;15.10;99.90
41939;DHT22;23057;48.554;14.454;2023-04-21T13:46:26;15.10;99.90
41939;DHT22;23057;48.554;14.454;2023-04-21T13:48:57;15.30;99.90
41939;DHT22;23057;48.554;14.454;2023-04-21T13:51:28;15.60;99.90
41939;DHT22;23057;48.554;14.454;2023-04-21T13:53:59;15.50;99.90
41939;DHT22;23057;48.554;14.454;2023-04-21T13:56:30;15.50;99.90
41939;DHT22;23057;48.554;14.454;2023-04-21T13:59:00;15.30;99.90
41939;DHT22;23057;48.554;14.454;2023-04-21T14:01:31;15.10;99.90
41939;DHT22;23057;48.554;14.454;2023-04-21T14:04:02;15.00;99.90
41939;DHT22;23057;48.554;14.454;2023-04-21T14:06:33;14.90;99.90
41939;DHT22;23057;48.554;14.454;2023-04-21T14:09:03;14.90;99.90
41939;DHT22;23057;48.554;14.454;2023-04-21T14:11:35;15.00;99.90
41939;DHT22;23057;48.554;14.454;2023-04-21T14:14:06;15.40;99.90
41939;DHT22;23057;48.554;14.454;2023-04-21T14:16:37;15.10;99.90
41939;DHT22;23057;48.554;14.454;2023-04-21T14:19:08;14.90;99.90
41939;DHT22;23057;48.554;14.454;2023-04-21T14:21:40;15.00;99.90
41939;DHT22;23057;48.554;14.454;2023-04-21T14:24:11;15.00;99.90
41939;DHT22;23057;48.554;14.454;2023-04-21T14:26:41;15.00;99.90
41939;DHT22;23057;48.554;14.454;2023-04-21T14:29:12;14.90;99.90
41939;DHT22;23057;48.554;14.454;2023-04-21T14:31:43;15.00;99.90
41939;DHT22;23057;48.554;14.454;2023-04-21T14:34:14;14.90;99.90
41939;DHT22;23057;48.554;14.454;2023-04-21T14:36:45;15.60;99.90
41939;DHT22;23057;48.554;14.454;2023-04-21T14:39:19;15.80;99.90
41939;DHT22;23057;48.554;14.454;2023-04-21T14:41:50;15.80;99.90
41939;DHT22;23057;48.554;14.454;2023-04-21T14:44:20;15.70;99.90
41939;DHT22;23057;48.554;14.454;2023-04-21T14:46:51;15.70;99.90
41939;DHT22;23057;48.554;14.454;2023-04-21T14:49:22;15.50;99.90
41939;DHT22;23057;48.554;14.454;2023-04-21T14:51:53;15.40;99.90
41939;DHT22;23057;48.554;14.454;2023-04-21T14:54:23;15.30;99.90
41939;DHT22;23057;48.554;14.454;2023-04-21T14:56:54;15.10;99.90
41939;DHT22;23057;48.554;14.454;2023-04-21T14:59:27;14.80;99.90
41939;DHT22;23057;48.554;14.454;2023-04-21T15:01:57;14.70;99.90
41939;DHT22;23057;48.554;14.454;2023-04-21T15:04:28;14.70;99.90
41939;DHT22;23057;48.554;14.454;2023-04-21T15:07:00;14.90;99.90
41939;DHT22;23057;48.554;14.454;2023-04-21T15:09:31;15.30;99.90
41939;DHT22;23057;48.554;14.454;2023-04-21T15:12:01;15.40;99.90
41939;DHT22;23057;48.554;14.454;2023-04-21T15:14:32;15.10;99.90
41939;DHT22;23057;48.554;14.454;2023-04-21T15:17:03;14.90;99.90
41939;DHT22;23057;48.554;14.454;2023-04-21T15:19:34;14.90;99.90
41939;DHT22;23057;48.554;14.454;2023-04-21T15:22:05;14.90;99.90
41939;DHT22;23057;48.554;14.454;2023-04-21T15:24:36;14.80;99.90
41939;DHT22;23057;48.554;14.454;2023-04-21T15:27:07;14.70;99.90
41939;DHT22;23057;48.554;14.454;2023-04-21T15:29:37;15.10;99.90
41939;DHT22;23057;48.554;14.454;2023-04-21T15:32:08;15.20;99.90
41939;DHT22;23057;48.554;14.454;2023-04-21T15:34:47;15.30;99.90
41939;DHT22;23057;48.554;14.454;2023-04-21T15:37:18;15.40;99.90
41939;DHT22;23057;48.554;14.454;2023-04-21T15:39:50;15.30;99.90
41939;DHT22;23057;48.554;14.454;2023-04-21T15:42:21;15.00;99.90
41939;DHT22;23057;48.554;14.454;2023-04-21T15:44:52;15.00;99.90
41939;DHT22;23057;48.554;14.454;2023-04-21T15:47:23;15.00;99.90
41939;DHT22;23057;48.554;14.454;2023-04-21T15:49:54;15.10;99.90
41939;DHT22;23057;48.554;14.454;2023-04-21T15:52:25;14.90;99.90
41939;DHT22;23057;48.554;14.454;2023-04-21T15:54:58;14.90;99.90
41939;DHT22;23057;48.554;14.454;2023-04-21T15:57:29;14.80;99.90
41939;DHT22;23057;48.554;14.454;2023-04-21T16:00:00;14.70;99.90
41939;DHT22;23057;48.554;14.454;2023-04-21T16:02:31;14.70;99.90
41939;DHT22;23057;48.554;14.454;2023-04-21T16:05:01;14.60;99.90
41939;DHT22;23057;48.554;14.454;2023-04-21T16:07:33;14.50;99.90
41939;DHT22;23057;48.554;14.454;2023-04-21T16:10:04;14.50;99.90
41939;DHT22;23057;48.554;14.454;2023-04-21T16:12:35;14.40;99.90
41939;DHT22;23057;48.554;14.454;2023-04-21T16:15:07;14.40;99.90